Oro Valley, Arizona
Current Conditions -  °F | °C
As of 6:35 AM on Friday 28 Nov 2014 (Local Time) from KAVQ Reporting Station
Clear Clear  
Wind Chill: 56°   Ceiling: Unl
Heat Index: 56°   Visibility: 10mi
Dew Point: 21°   Wind: 12mph
Humidity: 25%   Direction: 110°ESE
Pressure: 30.07"   Gusts: NA
Location:  32.4847°N, 110.899°W
Report Text: KAVQ 281335Z AUTO 11010KT 10SM CLR 14/M06 A3007 RMK AO2 T01361061
Loading
Personal Weather Stations






























Interactive Weather Map New forecast layout! Learn more

10-Day Weather Forecast

Advertisements
Track Severe Weather on mobile